logo
Rechercher aéroport 
image banner adimage banner adimage banner ad
image banner ad

DGAH - Ho

Situé à , Ghana

ICAO - , IATA -

Données fournies par Airmate  

Information générale

Coordonnées: N6°34'47" E0°31'57"
Élévation : 356 feet MSL.
 
Voir autres Aéroports à Greater Accra Region

Données opérationnelles

Special qualification required
Heure actuelle UTC:
Heure actuelle locale:
Météo à : - ( 0 km )
METAR: KSAR 281143Z AUTO 30012G21KT 10SM BKN022 M01/M04 A2986 RMK AO2
Voir NOTAMs / SUP AIP / TFR affectant cet aéroport [VIEW]
Fréquences de communication: [VIEW]

Pistes:

Identifiant RWYQFULongueur (ft)Largeur (ft)SurfaceLDA (ft)
0440°524998UNK
22220°524998UNK

Coordonnées de l'aéroport

Adresse: Ghana

Vue satellite de DGAH